Time;durP1;ratioP1;P1;durP2;ratioP2;P2;SDS_P1;SDS_P2;PMS_P1;PMS_P2;Temp;Humidity;BMP_temperature;BMP_pressure;BME280_temperature;BME280_humidity;BME280_pressure;Samples;Min_cycle;Max_cycle;Signal;HPM_P1;HPM_P2
2021/03/15 00:00:06;;;;;;;11.30;8.00;;;4.80;99.90;;;;;;5078830;28;20480;-90
2021/03/15 00:02:32;;;;;;;13.43;8.07;;;4.80;99.90;;;;;;5067287;28;20481;-90
2021/03/15 00:05:01;;;;;;;15.53;10.30;;;4.80;99.90;;;;;;5057635;28;20466;-90
2021/03/15 00:07:29;;;;;;;13.00;10.33;;;4.80;99.90;;;;;;5072971;28;20798;-90
2021/03/15 00:09:55;;;;;;;11.53;9.87;;;4.80;99.90;;;;;;5077379;28;20466;-90
2021/03/15 00:12:23;;;;;;;15.07;11.00;;;4.70;99.90;;;;;;5073372;28;20459;-90
2021/03/15 00:14:50;;;;;;;13.87;11.00;;;4.70;99.90;;;;;;5075034;28;20485;-90
2021/03/15 00:17:18;;;;;;;19.20;13.40;;;4.60;99.90;;;;;;5052209;28;20509;-90
2021/03/15 00:19:45;;;;;;;16.23;12.60;;;4.60;99.90;;;;;;5058350;28;20473;-90
2021/03/15 00:22:14;;;;;;;20.70;13.93;;;4.60;99.90;;;;;;5058500;28;20462;-91
2021/03/15 00:24:41;;;;;;;16.67;11.53;;;4.60;99.90;;;;;;5058332;28;20765;-91
2021/03/15 00:27:07;;;;;;;18.13;13.07;;;4.60;99.90;;;;;;5058237;28;20466;-91
2021/03/15 00:29:35;;;;;;;21.70;14.73;;;4.60;99.90;;;;;;5055712;28;20528;-91
2021/03/15 00:32:02;;;;;;;18.67;13.27;;;4.50;99.90;;;;;;5058127;28;20446;-90
2021/03/15 00:34:33;;;;;;;18.63;12.77;;;4.50;99.90;;;;;;5048433;28;20463;-91
2021/03/15 00:37:03;;;;;;;22.10;12.83;;;4.60;99.90;;;;;;5038683;28;20554;-90
2021/03/15 00:39:29;;;;;;;21.90;14.80;;;4.60;99.90;;;;;;5052727;28;20466;-90
2021/03/15 00:41:56;;;;;;;20.60;14.90;;;4.60;99.90;;;;;;5040097;28;20527;-90
2021/03/15 00:44:23;;;;;;;22.50;15.13;;;4.60;99.90;;;;;;5057251;28;20462;-90
2021/03/15 00:46:51;;;;;;;23.30;13.57;;;4.60;99.90;;;;;;5056288;28;20466;-91
2021/03/15 00:49:17;;;;;;;25.80;15.80;;;4.60;99.90;;;;;;5040193;28;20463;-91
2021/03/15 00:51:44;;;;;;;23.87;15.50;;;4.60;99.90;;;;;;5041039;28;20811;-90
2021/03/15 00:54:11;;;;;;;21.73;16.17;;;4.70;99.90;;;;;;5057677;28;20775;-91
2021/03/15 00:56:37;;;;;;;20.73;14.97;;;4.70;99.90;;;;;;5056188;28;20478;-91
2021/03/15 00:59:07;;;;;;;21.30;14.20;;;4.70;99.90;;;;;;5040137;28;20465;-91
2021/03/15 01:01:34;;;;;;;22.80;12.63;;;4.60;99.90;;;;;;5053299;28;20485;-91
2021/03/15 01:04:02;;;;;;;15.00;12.60;;;4.70;99.90;;;;;;5043551;28;20519;-90
2021/03/15 01:06:28;;;;;;;17.40;12.53;;;4.70;99.90;;;;;;5054076;28;20933;-90
2021/03/15 01:08:58;;;;;;;17.67;12.03;;;4.70;99.90;;;;;;5046736;28;20877;-91
2021/03/15 01:11:25;;;;;;;16.03;13.77;;;4.70;99.90;;;;;;5023503;28;20498;-91
2021/03/15 01:13:52;;;;;;;16.50;13.47;;;4.70;99.90;;;;;;5040885;28;20544;-91
2021/03/15 01:16:21;;;;;;;22.57;14.80;;;4.70;99.90;;;;;;5050801;28;21023;-91
2021/03/15 01:18:48;;;;;;;20.53;13.80;;;4.70;99.90;;;;;;5056711;28;20729;-91
2021/03/15 01:21:16;;;;;;;16.60;12.63;;;4.70;99.90;;;;;;5043910;28;20454;-90
2021/03/15 01:23:45;;;;;;;16.60;13.40;;;4.70;99.90;;;;;;5057203;28;20457;-91
2021/03/15 01:26:12;;;;;;;20.00;12.90;;;4.70;99.90;;;;;;5056899;28;20446;-90
2021/03/15 01:28:39;;;;;;;15.90;11.90;;;4.70;99.90;;;;;;5053169;28;20470;-90
2021/03/15 01:31:05;;;;;;;16.03;11.87;;;4.60;99.90;;;;;;5055717;28;20767;-91
2021/03/15 01:33:32;;;;;;;17.07;12.40;;;4.60;99.90;;;;;;5056102;28;20557;-90
2021/03/15 01:35:59;;;;;;;16.63;12.90;;;4.60;99.90;;;;;;5056312;28;20482;-91
2021/03/15 01:38:27;;;;;;;15.47;10.73;;;4.60;99.90;;;;;;5057215;28;20440;-91
2021/03/15 01:40:56;;;;;;;17.40;11.30;;;4.60;99.90;;;;;;5052543;28;20462;-91
2021/03/15 01:43:23;;;;;;;15.37;10.53;;;4.60;99.90;;;;;;5057473;28;20864;-91
2021/03/15 01:45:50;;;;;;;17.63;9.87;;;4.60;99.90;;;;;;5067106;28;20455;-90
2021/03/15 01:48:16;;;;;;;14.73;9.00;;;4.50;99.90;;;;;;5057310;28;20470;-91
2021/03/15 01:50:48;;;;;;;11.80;8.23;;;4.50;99.90;;;;;;5048377;28;20827;-91
2021/03/15 01:53:17;;;;;;;10.43;8.43;;;4.50;99.90;;;;;;5057049;28;20512;-91
2021/03/15 01:55:46;;;;;;;11.60;8.80;;;4.40;99.90;;;;;;5045183;28;20486;-90
2021/03/15 01:58:13;;;;;;;14.07;9.03;;;4.40;99.90;;;;;;5037684;28;20487;-91
2021/03/15 02:00:41;;;;;;;10.87;8.40;;;4.40;99.90;;;;;;5041428;28;20438;-91
2021/03/15 02:03:11;;;;;;;15.20;8.00;;;4.40;99.90;;;;;;5037169;28;20454;-91
2021/03/15 02:05:40;;;;;;;10.93;8.97;;;4.40;99.90;;;;;;5037413;28;20818;-91
2021/03/15 02:08:07;;;;;;;11.17;8.73;;;4.50;99.90;;;;;;5036932;28;20501;-91
2021/03/15 02:10:35;;;;;;;15.50;8.20;;;4.50;99.90;;;;;;5036585;28;20463;-91
2021/03/15 02:13:34;;;;;;;12.20;8.87;;;4.60;99.90;;;;;;5036872;28;20467;-91
2021/03/15 02:16:07;;;;;;;11.20;7.43;;;4.50;99.90;;;;;;5036640;28;20884;-91
2021/03/15 02:18:55;;;;;;;16.77;8.77;;;4.50;99.90;;;;;;5077213;28;20821;-91
2021/03/15 02:21:58;;;;;;;11.87;8.73;;;4.50;99.90;;;;;;5076858;28;20448;-91
2021/03/15 02:24:32;;;;;;;12.03;8.07;;;4.50;99.90;;;;;;5097256;28;20447;-91
2021/03/15 02:27:43;;;;;;;13.90;9.70;;;4.50;99.90;;;;;;5079676;28;20444;-91
2021/03/15 02:30:42;;;;;;;11.20;8.80;;;4.60;99.90;;;;;;5032471;28;20459;-91
2021/03/15 02:33:41;;;;;;;10.50;7.90;;;4.60;99.90;;;;;;5096748;28;20486;-90
2021/03/15 02:36:11;;;;;;;9.87;8.70;;;4.60;99.90;;;;;;5076338;28;20484;-90
2021/03/15 02:38:40;;;;;;;10.27;9.17;;;4.50;99.90;;;;;;5097114;28;20507;-91
2021/03/15 02:41:10;;;;;;;10.37;8.63;;;4.50;99.90;;;;;;5077092;28;20551;-90
2021/03/15 02:43:43;;;;;;;12.50;9.07;;;4.60;99.90;;;;;;5077239;28;20444;-91
2021/03/15 02:46:16;;;;;;;13.77;8.87;;;4.50;99.90;;;;;;5075724;28;20926;-91
2021/03/15 02:48:45;;;;;;;13.37;10.00;;;4.60;99.90;;;;;;5076520;28;20913;-91
2021/03/15 02:51:16;;;;;;;15.67;9.50;;;4.60;99.90;;;;;;5058612;28;20770;-91
2021/03/15 02:53:44;;;;;;;13.57;9.47;;;4.60;99.90;;;;;;5076563;28;20447;-91
2021/03/15 02:56:16;;;;;;;13.53;10.07;;;4.60;99.90;;;;;;5076506;28;20493;-91
2021/03/15 02:58:44;;;;;;;16.67;10.57;;;4.60;99.90;;;;;;5079913;28;20752;-91
2021/03/15 03:01:13;;;;;;;14.30;10.27;;;4.60;99.90;;;;;;5064490;28;20514;-91
2021/03/15 03:03:42;;;;;;;10.50;8.43;;;4.60;99.90;;;;;;5085693;28;20461;-91
2021/03/15 03:06:15;;;;;;;12.00;9.67;;;4.60;99.90;;;;;;5079494;28;20416;-91
2021/03/15 03:08:44;;;;;;;10.57;6.90;;;4.50;99.90;;;;;;5077758;28;20441;-91
2021/03/15 03:11:11;;;;;;;7.30;6.60;;;4.50;99.90;;;;;;5080021;28;20883;-91
2021/03/15 03:13:39;;;;;;;9.53;6.50;;;4.50;99.90;;;;;;5079647;28;20492;-91
2021/03/15 03:16:08;;;;;;;4.90;4.40;;;4.50;99.90;;;;;;5065234;28;20492;-91
2021/03/15 03:18:37;;;;;;;5.80;4.50;;;4.40;99.90;;;;;;5080482;28;20619;-91
2021/03/15 03:21:05;;;;;;;5.23;3.60;;;4.40;99.90;;;;;;5095138;28;20735;-91
2021/03/15 03:23:35;;;;;;;4.60;3.67;;;4.40;99.90;;;;;;5080897;28;20450;-91
2021/03/15 03:26:05;;;;;;;3.57;3.00;;;4.30;99.90;;;;;;5082342;28;20453;-91
2021/03/15 03:28:33;;;;;;;4.80;3.73;;;4.40;99.90;;;;;;5063242;28;20896;-91
2021/03/15 03:31:03;;;;;;;3.83;3.33;;;4.40;99.90;;;;;;5080020;28;20462;-91
2021/03/15 03:33:32;;;;;;;3.57;3.10;;;4.30;99.90;;;;;;5083954;28;20564;-91
2021/03/15 03:35:59;;;;;;;4.07;3.20;;;4.40;99.90;;;;;;5079200;28;20920;-90
2021/03/15 03:38:34;;;;;;;4.33;3.50;;;4.40;99.90;;;;;;5090056;28;20465;-91
2021/03/15 03:41:01;;;;;;;5.00;3.70;;;4.40;99.90;;;;;;5100172;28;20459;-91
2021/03/15 03:43:29;;;;;;;5.73;4.37;;;4.40;99.90;;;;;;5098131;28;20443;-91
2021/03/15 03:45:56;;;;;;;4.97;4.50;;;4.40;99.90;;;;;;5098872;28;20789;-91
2021/03/15 03:48:22;;;;;;;4.90;4.40;;;4.40;99.90;;;;;;5085898;28;20890;-91
2021/03/15 03:50:49;;;;;;;5.77;5.13;;;4.40;99.90;;;;;;5079221;28;20797;-91
2021/03/15 03:53:19;;;;;;;5.70;4.50;;;4.40;99.90;;;;;;5095264;28;20530;-91
2021/03/15 03:55:58;;;;;;;8.90;6.03;;;4.40;99.90;;;;;;5097806;28;20488;-91
2021/03/15 03:58:30;;;;;;;6.30;5.70;;;4.40;99.90;;;;;;5080313;28;20558;-91
2021/03/15 04:00:57;;;;;;;7.30;6.50;;;4.40;99.90;;;;;;5085105;28;20479;-91
2021/03/15 04:03:27;;;;;;;6.10;5.57;;;4.40;99.90;;;;;;5084370;28;20448;-91
2021/03/15 04:05:57;;;;;;;9.63;6.63;;;4.50;99.90;;;;;;5083537;28;20485;-91
2021/03/15 04:08:28;;;;;;;6.70;6.00;;;4.50;99.90;;;;;;5079477;28;20797;-91
2021/03/15 04:10:56;;;;;;;8.43;6.30;;;4.40;99.90;;;;;;5082576;28;20468;-91
2021/03/15 04:13:26;;;;;;;6.90;6.20;;;4.40;99.90;;;;;;5091822;28;20547;-91
2021/03/15 04:15:53;;;;;;;7.50;6.70;;;4.40;99.90;;;;;;5093934;28;20467;-91
2021/03/15 04:18:25;;;;;;;7.20;6.50;;;4.40;99.90;;;;;;5099745;28;20460;-91
2021/03/15 04:20:55;;;;;;;8.87;7.20;;;4.40;99.90;;;;;;5093809;28;20530;-91
2021/03/15 04:23:28;;;;;;;6.80;6.20;;;4.40;99.90;;;;;;5096039;28;20457;-91
2021/03/15 04:25:56;;;;;;;7.37;6.43;;;4.40;99.90;;;;;;5097857;28;20439;-91
2021/03/15 04:28:25;;;;;;;8.60;7.00;;;4.40;99.90;;;;;;5096915;28;20814;-91
2021/03/15 04:30:52;;;;;;;7.20;6.50;;;4.40;99.90;;;;;;5087278;28;20503;-91
2021/03/15 04:33:19;;;;;;;8.63;7.20;;;4.40;99.90;;;;;;5078618;28;20594;-91
2021/03/15 04:35:46;;;;;;;8.40;7.20;;;4.40;99.90;;;;;;5096964;28;20947;-91
2021/03/15 04:38:14;;;;;;;10.20;8.97;;;4.40;99.90;;;;;;5092214;28;20883;-91
2021/03/15 04:40:45;;;;;;;9.60;8.60;;;4.30;99.90;;;;;;5078276;28;20444;-91
2021/03/15 04:43:12;;;;;;;10.37;9.13;;;4.30;99.90;;;;;;5077073;28;20522;-92
2021/03/15 04:45:43;;;;;;;11.13;10.07;;;4.30;99.90;;;;;;5077875;28;20461;-91
2021/03/15 04:48:15;;;;;;;12.13;10.00;;;4.40;99.90;;;;;;5094467;28;20460;-91
2021/03/15 04:50:44;;;;;;;11.67;10.03;;;4.40;99.90;;;;;;5096681;28;20461;-91
2021/03/15 04:53:12;;;;;;;11.67;10.23;;;4.40;99.90;;;;;;5097814;28;20495;-91
2021/03/15 04:55:40;;;;;;;10.37;9.33;;;4.40;99.90;;;;;;5096410;28;20477;-91
2021/03/15 04:58:09;;;;;;;11.97;9.47;;;4.30;99.90;;;;;;5098968;28;20778;-91
2021/03/15 05:00:37;;;;;;;12.43;8.90;;;4.30;99.90;;;;;;5088877;28;20443;-91
2021/03/15 05:03:08;;;;;;;10.43;9.10;;;4.20;99.90;;;;;;5078155;28;20808;-91
2021/03/15 05:05:36;;;;;;;11.90;9.40;;;4.20;99.90;;;;;;5080725;28;20465;-91
2021/03/15 05:08:05;;;;;;;10.47;8.13;;;4.20;99.90;;;;;;5077988;28;20513;-91
2021/03/15 05:10:32;;;;;;;7.50;6.70;;;4.20;99.90;;;;;;5093624;28;20456;-91
2021/03/15 05:12:59;;;;;;;8.50;7.20;;;4.10;99.90;;;;;;5090471;28;20464;-91
2021/03/15 05:15:27;;;;;;;9.10;7.20;;;4.10;99.90;;;;;;5081382;28;20481;-91
2021/03/15 05:17:55;;;;;;;9.83;7.27;;;4.10;99.90;;;;;;5077701;28;20730;-91
2021/03/15 05:20:25;;;;;;;8.67;7.87;;;4.20;99.90;;;;;;5097392;28;20464;-91
2021/03/15 05:22:53;;;;;;;10.80;8.20;;;4.20;99.90;;;;;;5080352;28;20472;-91
2021/03/15 05:25:21;;;;;;;11.00;8.30;;;4.20;99.90;;;;;;5097429;28;20490;-92
2021/03/15 05:27:50;;;;;;;10.30;8.40;;;4.10;99.90;;;;;;5095803;28;20461;-91
2021/03/15 05:30:19;;;;;;;9.60;8.23;;;4.10;99.90;;;;;;5097890;28;20444;-91
2021/03/15 05:32:50;;;;;;;8.30;7.27;;;4.20;99.90;;;;;;5091243;28;20462;-91
2021/03/15 05:35:18;;;;;;;9.50;7.70;;;4.10;99.90;;;;;;5077404;28;20486;-91
2021/03/15 05:37:47;;;;;;;9.23;8.30;;;4.10;99.90;;;;;;5085960;28;20465;-91
2021/03/15 05:40:17;;;;;;;7.80;7.10;;;4.10;99.90;;;;;;5077529;28;20527;-91
2021/03/15 05:43:14;;;;;;;9.13;7.47;;;4.10;99.90;;;;;;5077223;28;20531;-91
2021/03/15 05:46:20;;;;;;;8.97;8.07;;;4.10;99.90;;;;;;5076408;28;20469;-91
2021/03/15 05:49:29;;;;;;;8.27;6.87;;;4.10;99.90;;;;;;5077942;28;20472;-91
2021/03/15 05:52:09;;;;;;;6.97;6.27;;;4.10;99.90;;;;;;5077123;28;20472;-91
2021/03/15 05:55:04;;;;;;;6.03;5.33;;;4.00;99.90;;;;;;5077943;28;20532;-91
2021/03/15 05:57:58;;;;;;;6.37;5.67;;;4.00;99.90;;;;;;5033399;28;20844;-91
2021/03/15 06:00:36;;;;;;;7.70;6.90;;;3.90;99.90;;;;;;5077464;28;20762;-90
2021/03/15 06:03:16;;;;;;;7.93;7.10;;;3.90;99.90;;;;;;5076477;28;20538;-91
2021/03/15 06:05:45;;;;;;;8.07;7.27;;;3.90;99.90;;;;;;5090621;28;20456;-90
2021/03/15 06:08:19;;;;;;;8.03;7.00;;;4.00;99.90;;;;;;5092610;28;20774;-91
2021/03/15 06:11:04;;;;;;;9.60;7.27;;;3.90;99.90;;;;;;5080879;28;20466;-90
2021/03/15 06:13:32;;;;;;;8.30;7.37;;;3.90;99.90;;;;;;5086414;28;20527;-91
2021/03/15 06:16:00;;;;;;;8.00;7.20;;;4.00;99.90;;;;;;5095003;28;21023;-91
2021/03/15 06:18:28;;;;;;;10.23;8.03;;;4.00;99.90;;;;;;5077395;28;20461;-91
2021/03/15 06:20:56;;;;;;;9.70;7.50;;;4.00;99.90;;;;;;5084047;28;20822;-91
2021/03/15 06:23:23;;;;;;;8.33;7.50;;;3.90;99.90;;;;;;5096693;28;20455;-91
2021/03/15 06:25:50;;;;;;;9.30;8.33;;;4.00;99.90;;;;;;5097000;28;20447;-91
2021/03/15 06:28:19;;;;;;;15.23;11.00;;;4.00;99.90;;;;;;5096636;28;20496;-91
2021/03/15 06:30:47;;;;;;;11.53;10.33;;;4.10;99.90;;;;;;5097305;28;20897;-91
2021/03/15 06:33:16;;;;;;;13.77;9.80;;;4.10;99.90;;;;;;5092218;28;20460;-92
2021/03/15 06:35:44;;;;;;;11.93;10.37;;;4.20;99.90;;;;;;5081870;28;20572;-92
2021/03/15 06:38:11;;;;;;;11.87;10.50;;;4.20;99.90;;;;;;5090196;28;20491;-92
2021/03/15 06:40:41;;;;;;;15.27;10.70;;;4.20;99.90;;;;;;5099784;28;20436;-92
2021/03/15 06:43:13;;;;;;;17.53;11.03;;;4.30;99.90;;;;;;5092289;28;20993;-92
2021/03/15 06:45:42;;;;;;;11.70;10.50;;;4.30;99.90;;;;;;5081560;28;20481;-92
2021/03/15 06:48:12;;;;;;;13.03;10.60;;;4.30;99.90;;;;;;5081503;28;20469;-93
2021/03/15 06:50:38;;;;;;;11.17;9.97;;;4.30;99.90;;;;;;5079284;28;20426;-91
2021/03/15 06:53:06;;;;;;;10.83;9.67;;;4.40;99.90;;;;;;5080410;28;20472;-92
2021/03/15 06:55:46;;;;;;;11.70;10.17;;;4.30;99.90;;;;;;5091755;28;20488;-93
2021/03/15 06:58:25;;;;;;;13.80;10.97;;;4.40;99.90;;;;;;5098995;28;20476;-92
2021/03/15 07:04:08;;;;;;;12.75;10.30;;;4.50;99.90;;;;;;5042755;27;1962649;-94
2021/03/15 07:06:36;;;;;;;14.87;12.13;;;4.40;99.90;;;;;;5112756;28;20211;-93
2021/03/15 07:09:09;;;;;;;15.67;11.27;;;4.50;99.90;;;;;;5112134;28;20554;-93
2021/03/15 07:11:38;;;;;;;15.90;12.53;;;4.50;99.90;;;;;;5112949;28;20475;-93
2021/03/15 07:14:06;;;;;;;13.83;11.50;;;4.50;99.90;;;;;;5110959;28;20450;-94
2021/03/15 07:16:34;;;;;;;12.37;11.00;;;4.70;99.90;;;;;;5113652;28;20472;-93
2021/03/15 07:19:07;;;;;;;11.93;9.20;;;4.70;99.90;;;;;;5112465;28;20460;-94
2021/03/15 07:21:38;;;;;;;11.17;9.83;;;4.70;99.90;;;;;;5112591;28;20472;-94
2021/03/15 07:24:13;;;;;;;11.33;10.10;;;4.70;99.90;;;;;;5113464;28;20464;-94
2021/03/15 07:26:44;;;;;;;14.60;11.27;;;4.70;99.90;;;;;;5111951;28;20516;-94
2021/03/15 07:29:12;;;;;;;10.83;9.67;;;4.80;99.90;;;;;;5114809;28;20472;-93
2021/03/15 07:31:39;;;;;;;13.87;8.83;;;4.70;99.90;;;;;;5111684;28;20456;-92
2021/03/15 07:34:15;;;;;;;9.80;8.80;;;4.70;99.90;;;;;;5112284;28;20468;-93
2021/03/15 07:36:48;;;;;;;9.03;7.33;;;4.70;99.90;;;;;;5111253;28;20546;-93
2021/03/15 07:39:15;;;;;;;8.97;8.00;;;4.70;99.90;;;;;;5111951;28;20808;-93
2021/03/15 07:41:45;;;;;;;12.83;8.30;;;4.70;99.90;;;;;;5111213;28;20491;-93
2021/03/15 07:44:26;;;;;;;11.67;8.57;;;4.80;99.90;;;;;;5114743;28;20455;-94
2021/03/15 07:46:54;;;;;;;14.27;7.50;;;5.20;99.90;;;;;;5112004;28;20460;-93
2021/03/15 07:49:32;;;;;;;7.80;7.00;;;5.40;99.90;;;;;;5113461;28;20828;-93
2021/03/15 07:52:02;;;;;;;7.80;7.00;;;5.40;99.90;;;;;;5094429;28;20463;-93
2021/03/15 07:54:34;;;;;;;11.13;8.87;;;5.50;99.90;;;;;;5103908;28;20479;-94
2021/03/15 07:57:14;;;;;;;9.73;8.50;;;5.40;99.90;;;;;;5114771;28;20459;-94
2021/03/15 07:59:46;;;;;;;11.40;8.70;;;5.20;99.90;;;;;;5113944;28;20467;-94
2021/03/15 08:02:18;;;;;;;12.30;10.20;;;5.20;99.90;;;;;;5112889;28;20496;-94
2021/03/15 08:04:47;;;;;;;10.77;9.07;;;5.60;99.90;;;;;;5099076;28;20550;-93
2021/03/15 08:07:24;;;;;;;13.93;10.23;;;6.20;99.90;;;;;;5095779;28;20486;-94
2021/03/15 12:19:12;;;;;;;7.40;4.17;;;7.40;99.90;;;;;;669363;23;22031;31
2021/03/15 12:21:43;;;;;;;8.90;3.50;;;7.70;99.90;;;;;;4967542;28;20482;-92
2021/03/15 12:24:16;;;;;;;6.10;3.10;;;8.10;99.90;;;;;;4962283;28;20465;-93
2021/03/15 12:44:18;;;;;;;6.57;4.20;;;8.00;1.00;;;;;;5007773;28;20871;-91
2021/03/15 12:46:45;;;;;;;9.43;4.93;;;7.50;1.00;;;;;;5019521;28;20472;-91
2021/03/15 12:49:13;;;;;;;7.33;4.90;;;6.60;1.00;;;;;;5015248;28;20515;-91
2021/03/15 12:51:43;;;;;;;11.40;5.60;;;6.40;99.90;;;;;;5017557;28;20727;-91
2021/03/15 12:54:11;;;;;;;5.87;4.53;;;6.70;99.90;;;;;;5017355;28;20522;-90
2021/03/15 12:56:40;;;;;;;6.23;4.43;;;7.40;99.90;;;;;;5014794;28;20818;-90
2021/03/15 12:59:07;;;;;;;5.93;3.80;;;8.40;91.60;;;;;;5019811;28;20764;-91
2021/03/15 13:01:36;;;;;;;8.33;4.77;;;9.00;99.90;;;;;;5015025;28;20479;-91
2021/03/15 13:04:03;;;;;;;5.27;3.40;;;9.40;53.90;;;;;;4992361;28;20470;-91
2021/03/15 13:06:29;;;;;;;4.80;3.40;;;9.50;1.00;;;;;;5005813;28;20492;-91
2021/03/15 13:08:59;;;;;;;6.70;4.20;;;9.00;1.00;;;;;;5008773;28;20464;-91
2021/03/15 13:11:26;;;;;;;6.03;3.90;;;8.50;1.00;;;;;;5009444;28;20468;-91
2021/03/15 13:13:53;;;;;;;7.77;3.90;;;8.40;1.00;;;;;;4987855;28;20444;-91
2021/03/15 13:16:20;;;;;;;7.13;3.37;;;7.90;11.40;;;;;;5008787;28;20538;-91
2021/03/15 13:18:46;;;;;;;7.33;3.00;;;7.30;99.90;;;;;;5018666;28;20455;-91
2021/03/15 13:21:14;;;;;;;3.93;2.63;;;7.60;99.90;;;;;;4997628;28;20466;-91
2021/03/15 13:23:40;;;;;;;6.17;3.27;;;8.60;1.00;;;;;;4982373;28;20498;-91
2021/03/15 13:26:07;;;;;;;3.43;3.00;;;9.00;1.00;;;;;;5014502;28;20471;-91
2021/03/15 13:28:38;;;;;;;4.77;3.10;;;9.00;1.00;;;;;;5012860;28;20909;-91
2021/03/15 13:31:05;;;;;;;9.23;3.00;;;9.00;1.00;;;;;;5016222;28;20888;-91
2021/03/15 13:33:31;;;;;;;4.37;2.90;;;8.90;1.00;;;;;;5011489;28;20443;-91
2021/03/15 13:35:59;;;;;;;6.97;3.37;;;9.30;1.00;;;;;;5016225;28;20807;-92
2021/03/15 13:38:26;;;;;;;5.60;3.80;;;9.40;1.00;;;;;;5008468;28;20498;-92
2021/03/15 13:40:55;;;;;;;4.73;3.67;;;9.10;1.00;;;;;;5015668;28;20557;-92
2021/03/15 13:43:24;;;;;;;6.93;3.53;;;8.80;1.00;;;;;;5006452;28;20550;-92
2021/03/15 13:45:52;;;;;;;6.03;3.53;;;8.20;1.00;;;;;;4998173;28;20542;-92
2021/03/15 13:48:19;;;;;;;6.17;4.53;;;8.10;11.10;;;;;;5002188;28;20473;-92
2021/03/15 13:50:46;;;;;;;8.43;4.00;;;7.80;39.80;;;;;;4989039;28;20462;-92
2021/03/15 13:53:13;;;;;;;5.23;3.50;;;7.80;99.90;;;;;;5011363;28;20512;-91
2021/03/15 13:55:39;;;;;;;5.60;3.03;;;7.40;21.30;;;;;;5016599;28;20767;-91
2021/03/15 13:58:06;;;;;;;4.40;3.73;;;7.20;99.90;;;;;;5001843;28;20469;-91
2021/03/15 14:00:33;;;;;;;7.73;3.67;;;6.90;99.90;;;;;;5000073;28;20464;-91
2021/03/15 14:03:00;;;;;;;9.30;3.90;;;6.80;1.00;;;;;;4993814;28;20497;-91
2021/03/15 14:05:27;;;;;;;7.30;3.57;;;6.80;99.90;;;;;;4996084;28;20555;-91
2021/03/15 14:07:54;;;;;;;6.00;3.10;;;6.60;1.00;;;;;;4998615;28;20891;-91
2021/03/15 14:10:20;;;;;;;5.70;3.00;;;6.50;1.00;;;;;;4998670;28;20468;-91
2021/03/15 14:12:47;;;;;;;3.30;2.37;;;6.50;99.90;;;;;;4997963;28;20461;-90
2021/03/15 14:15:14;;;;;;;3.60;2.57;;;6.70;99.90;;;;;;4997507;28;20457;-91
2021/03/15 14:17:41;;;;;;;7.93;3.03;;;6.80;99.90;;;;;;4995919;28;20469;-91
2021/03/15 14:20:11;;;;;;;2.90;2.50;;;7.00;49.20;;;;;;4995847;28;20536;-89
2021/03/15 14:22:39;;;;;;;6.80;2.47;;;7.00;99.90;;;;;;4995038;28;20587;-89
2021/03/15 14:25:08;;;;;;;7.10;2.50;;;7.10;99.90;;;;;;4994921;28;20896;-90
2021/03/15 14:27:37;;;;;;;6.60;2.40;;;7.30;1.00;;;;;;4995864;28;20464;-89
2021/03/15 14:30:05;;;;;;;5.60;2.50;;;8.00;99.90;;;;;;4994859;28;20460;-90
2021/03/15 14:32:37;;;;;;;5.10;3.17;;;8.10;99.90;;;;;;4995198;28;20464;-90
2021/03/15 14:35:05;;;;;;;5.77;3.97;;;7.60;99.90;;;;;;4995402;28;20480;-91
2021/03/15 14:37:33;;;;;;;7.53;5.43;;;7.40;1.00;;;;;;4994383;28;20563;-91
2021/03/15 14:40:03;;;;;;;6.63;5.70;;;7.50;1.00;;;;;;4994517;28;20595;-91
2021/03/15 14:42:29;;;;;;;12.47;6.43;;;7.40;1.00;;;;;;4994910;28;20552;-91
2021/03/15 14:44:56;;;;;;;5.30;4.70;;;7.60;1.00;;;;;;4994726;28;20476;-91
2021/03/15 14:47:23;;;;;;;8.90;4.57;;;7.70;99.90;;;;;;4995551;28;20475;-91
2021/03/15 14:49:52;;;;;;;7.97;4.27;;;7.50;99.90;;;;;;4994997;28;20451;-91
2021/03/15 14:52:19;;;;;;;4.53;3.83;;;7.50;99.90;;;;;;4995889;28;20449;-91
2021/03/15 14:54:48;;;;;;;4.40;2.70;;;7.20;99.90;;;;;;4992071;28;20564;-92
2021/03/15 14:57:23;;;;;;;5.13;3.53;;;7.30;99.90;;;;;;4975735;28;20474;-91
2021/03/15 14:59:53;;;;;;;5.30;3.10;;;7.40;1.00;;;;;;4976114;28;20474;-91
2021/03/15 15:02:21;;;;;;;5.40;2.93;;;7.60;1.00;;;;;;4961074;28;20543;-91
2021/03/15 15:04:47;;;;;;;6.50;2.90;;;7.70;99.90;;;;;;4987933;28;20473;-90
2021/03/15 15:07:14;;;;;;;5.43;3.17;;;7.50;1.00;;;;;;4990369;28;20476;-90
2021/03/15 15:09:45;;;;;;;6.07;2.73;;;7.40;1.00;;;;;;4982054;28;20458;-92
2021/03/15 15:12:16;;;;;;;4.73;2.53;;;7.10;1.00;;;;;;4978006;28;20466;-91
2021/03/15 15:14:45;;;;;;;6.23;2.70;;;7.00;99.90;;;;;;4995520;28;20473;-91
2021/03/15 15:17:12;;;;;;;6.97;2.40;;;7.10;1.00;;;;;;4995479;28;20457;-91
2021/03/15 15:19:39;;;;;;;5.00;2.40;;;7.20;99.90;;;;;;4995776;28;21284;-91
2021/03/15 15:22:06;;;;;;;4.07;2.47;;;7.20;99.90;;;;;;4994982;28;20571;-91
2021/03/15 15:24:34;;;;;;;3.90;2.43;;;7.20;99.90;;;;;;4987736;28;20463;-91
2021/03/15 15:27:04;;;;;;;4.50;2.40;;;7.10;1.00;;;;;;4982434;28;20512;-90
2021/03/15 15:29:33;;;;;;;7.23;2.23;;;6.90;1.00;;;;;;4979559;28;20501;-92
2021/03/15 15:32:00;;;;;;;5.90;3.43;;;7.10;1.00;;;;;;4979340;28;20505;-92
2021/03/15 15:34:26;;;;;;;7.60;2.80;;;7.50;1.00;;;;;;4979732;28;20756;-92
2021/03/15 15:36:53;;;;;;;4.63;2.60;;;7.60;1.00;;;;;;4979832;28;20473;-92
2021/03/15 15:39:21;;;;;;;3.50;2.73;;;7.80;1.00;;;;;;4979670;28;20552;-93
2021/03/15 15:41:53;;;;;;;3.53;2.47;;;7.60;1.00;;;;;;4979423;28;20931;-92
2021/03/15 15:44:20;;;;;;;5.33;2.40;;;7.40;1.00;;;;;;4990944;28;20910;-92
2021/03/15 15:47:00;;;;;;;10.03;2.80;;;7.40;1.00;;;;;;4999976;28;20480;-92
2021/03/15 15:49:29;;;;;;;5.87;3.03;;;7.30;1.00;;;;;;4988192;28;20485;-92
2021/03/15 15:57:46;;;;;;;6.27;3.80;;;7.30;99.90;;;;;;4999166;28;20480;-92
2021/03/15 16:00:23;;;;;;;9.13;3.00;;;7.50;90.60;;;;;;5000725;28;20546;-93
2021/03/15 16:02:57;;;;;;;7.23;3.90;;;7.50;7.70;;;;;;4982225;28;20782;-93
2021/03/15 16:05:24;;;;;;;10.57;3.33;;;7.30;8.30;;;;;;4980558;28;20542;-92
2021/03/15 16:07:54;;;;;;;5.73;2.50;;;7.20;81.90;;;;;;4981778;28;20468;-93
2021/03/15 16:13:14;;;;;;;7.53;3.30;;;7.20;5.40;;;;;;5005112;28;20531;-93
2021/03/15 19:09:20;;;;;;;12.50;3.63;;;5.30;99.90;;;;;;4982662;28;20805;-90
2021/03/15 19:12:25;;;;;;;10.43;3.67;;;5.20;99.90;;;;;;4992828;28;20465;-90
2021/03/15 19:14:56;;;;;;;10.07;4.03;;;5.20;1.00;;;;;;4975439;28;20465;-91
2021/03/15 19:17:27;;;;;;;18.73;4.33;;;5.20;99.90;;;;;;4997569;28;20572;-90
2021/03/15 19:19:54;;;;;;;13.13;5.27;;;5.20;1.00;;;;;;4989218;28;20470;-90
2021/03/15 19:22:23;;;;;;;16.33;4.67;;;5.20;99.90;;;;;;4959666;28;20458;-90
2021/03/15 19:24:51;;;;;;;19.33;6.47;;;5.30;99.90;;;;;;4987324;28;20468;-91
2021/03/15 19:27:19;;;;;;;12.70;4.83;;;5.30;1.00;;;;;;4983581;28;20540;-90
2021/03/15 19:29:48;;;;;;;15.63;4.60;;;5.20;99.90;;;;;;4983991;28;20465;-90
2021/03/15 19:32:22;;;;;;;16.10;5.57;;;5.20;99.90;;;;;;4987932;28;20533;-91
2021/03/15 19:34:53;;;;;;;14.20;4.87;;;5.30;99.90;;;;;;4977268;28;20500;-91
2021/03/15 19:37:22;;;;;;;10.50;4.20;;;5.30;99.90;;;;;;4992481;28;20975;-90
2021/03/15 19:39:56;;;;;;;18.03;6.30;;;5.30;99.90;;;;;;4994294;28;20520;-91
2021/03/15 19:42:24;;;;;;;8.70;4.53;;;5.30;1.00;;;;;;4994361;28;20451;-91
2021/03/15 19:44:55;;;;;;;11.43;4.60;;;5.30;1.00;;;;;;4995089;28;20469;-90
2021/03/15 19:47:24;;;;;;;13.17;5.10;;;5.20;65.00;;;;;;4994248;28;20523;-91
2021/03/15 19:49:59;;;;;;;14.63;4.40;;;5.20;99.90;;;;;;4992126;28;21041;-91
2021/03/15 19:52:58;;;;;;;17.90;8.20;;;5.20;99.90;;;;;;4981085;28;20882;-91
2021/03/15 19:56:04;;;;;;;12.87;4.33;;;5.20;99.90;;;;;;4976227;28;20473;-91
2021/03/15 19:59:00;;;;;;;;;;;;;;;;;;;;;
2021/03/15 20:01:31;;;;;;;10.70;4.20;;;5.20;99.90;;;;;;4975321;28;20470;-91
2021/03/15 20:04:16;;;;;;;12.80;4.70;;;5.20;99.90;;;;;;4977456;28;20834;-92
2021/03/15 20:12:14;;;;;;;12.40;4.57;;;5.20;99.90;;;;;;4999360;28;20543;-92
2021/03/15 20:14:45;;;;;;;10.57;3.80;;;5.20;99.90;;;;;;4978996;28;20462;-91
2021/03/15 20:17:17;;;;;;;18.33;5.20;;;5.20;99.90;;;;;;4982063;28;20915;-92
2021/03/15 20:19:51;;;;;;;15.17;4.77;;;5.20;99.90;;;;;;4998072;28;20482;-92
2021/03/15 20:22:20;;;;;;;14.97;4.63;;;5.20;99.90;;;;;;4967153;28;20465;-92
2021/03/15 20:24:57;;;;;;;12.50;4.97;;;5.20;1.00;;;;;;4980346;28;20497;-92
2021/03/15 20:27:30;;;;;;;18.53;6.00;;;5.20;99.90;;;;;;4962303;28;20461;-91
2021/03/15 20:30:08;;;;;;;10.80;5.20;;;5.20;1.00;;;;;;4979029;28;20778;-91
2021/03/15 20:32:35;;;;;;;14.33;4.93;;;5.20;99.90;;;;;;4979584;28;20489;-91
2021/03/15 20:35:01;;;;;;;13.53;4.37;;;5.10;1.00;;;;;;4978701;28;20766;-91
2021/03/15 20:37:29;;;;;;;16.57;5.17;;;5.10;1.00;;;;;;4997202;28;20469;-91
2021/03/15 20:39:55;;;;;;;18.33;5.33;;;5.10;1.00;;;;;;4994279;28;20461;-91
2021/03/15 20:42:26;;;;;;;15.90;5.33;;;5.00;21.30;;;;;;4978615;28;20499;-91
2021/03/15 20:44:52;;;;;;;21.27;5.50;;;5.00;99.90;;;;;;4984255;28;20551;-91
2021/03/15 20:47:19;;;;;;;26.23;5.90;;;4.90;99.90;;;;;;4997959;28;20539;-91